createdAt,value
2018-04-02T00:01:48.708Z,99.90
2018-04-02T00:04:17.149Z,99.90
2018-04-02T00:06:45.497Z,99.90
2018-04-02T00:09:13.847Z,99.90
2018-04-02T00:11:42.204Z,99.90
2018-04-02T00:14:10.585Z,99.90
2018-04-02T00:16:38.917Z,99.90
2018-04-02T00:19:08.140Z,99.90
2018-04-02T00:21:36.499Z,99.90
2018-04-02T00:24:05.635Z,99.90
2018-04-02T00:26:33.993Z,99.90
2018-04-02T00:29:02.356Z,99.90
2018-04-02T00:31:30.896Z,99.90
2018-04-02T00:33:59.327Z,99.90
2018-04-02T00:36:27.718Z,99.90
2018-04-02T00:38:56.060Z,99.90
2018-04-02T00:41:25.193Z,99.90
2018-04-02T00:43:53.563Z,99.90
2018-04-02T00:46:22.036Z,99.90
2018-04-02T00:48:50.426Z,99.90
2018-04-02T00:51:18.760Z,99.90
2018-04-02T00:53:47.128Z,99.90
2018-04-02T00:56:15.513Z,99.90
2018-04-02T00:58:44.349Z,99.90
2018-04-02T01:01:12.717Z,99.90
2018-04-02T01:03:41.149Z,99.90
2018-04-02T01:06:09.483Z,99.90
2018-04-02T01:08:37.899Z,99.90
2018-04-02T01:11:06.273Z,99.90
2018-04-02T01:13:34.699Z,99.90
2018-04-02T01:16:03.036Z,99.90
2018-04-02T01:18:31.406Z,99.90
2018-04-02T01:20:59.752Z,99.90
2018-04-02T01:23:28.093Z,99.90
2018-04-02T01:25:56.443Z,99.90
2018-04-02T01:28:24.790Z,99.90
2018-04-02T01:30:53.159Z,99.90
2018-04-02T01:33:23.007Z,99.90
2018-04-02T01:35:51.400Z,99.90
2018-04-02T01:38:19.817Z,99.90
2018-04-02T01:40:48.253Z,99.90
2018-04-02T01:43:16.587Z,99.90
2018-04-02T01:45:45.106Z,99.90
2018-04-02T01:48:13.452Z,99.90
2018-04-02T01:50:42.568Z,99.90
2018-04-02T01:53:10.929Z,99.90
2018-04-02T01:55:40.030Z,99.90
2018-04-02T01:58:09.149Z,99.90
2018-04-02T02:00:37.501Z,99.90
2018-04-02T02:03:06.601Z,99.90
2018-04-02T02:05:34.943Z,99.90
2018-04-02T02:08:03.383Z,99.90
2018-04-02T02:10:31.724Z,99.90
2018-04-02T02:13:00.837Z,99.90
2018-04-02T02:15:29.450Z,99.90
2018-04-02T02:20:32.667Z,99.90
2018-04-02T02:23:01.187Z,99.90
2018-04-02T02:25:29.526Z,99.90
2018-04-02T02:27:57.936Z,99.90
2018-04-02T02:30:26.286Z,99.90
2018-04-02T02:32:54.733Z,99.90
2018-04-02T02:35:23.822Z,99.90
2018-04-02T02:37:52.925Z,99.90
2018-04-02T02:40:21.265Z,99.90
2018-04-02T02:42:50.561Z,99.90
2018-04-02T02:45:18.909Z,99.90
2018-04-02T02:47:47.253Z,99.90
2018-04-02T02:50:16.369Z,99.90
2018-04-02T02:52:44.781Z,99.90
2018-04-02T02:55:13.132Z,99.90
2018-04-02T02:57:41.473Z,99.90
2018-04-02T03:00:10.579Z,99.90
2018-04-02T03:02:39.706Z,99.90
2018-04-02T03:05:08.096Z,99.90
2018-04-02T03:07:36.415Z,99.90
2018-04-02T03:10:04.811Z,99.90
2018-04-02T03:12:33.236Z,99.90
2018-04-02T03:15:01.583Z,99.90
2018-04-02T03:17:30.678Z,99.90
2018-04-02T03:19:59.806Z,99.90
2018-04-02T03:22:28.202Z,99.90
2018-04-02T03:24:56.556Z,99.90
2018-04-02T03:27:25.503Z,99.90
2018-04-02T03:29:53.837Z,99.90
2018-04-02T03:32:22.200Z,99.90
2018-04-02T03:34:50.536Z,99.90
2018-04-02T03:37:18.970Z,99.90
2018-04-02T03:39:47.341Z,99.90
2018-04-02T03:42:15.707Z,99.90
2018-04-02T03:44:44.064Z,99.90
2018-04-02T03:47:13.198Z,99.90
2018-04-02T03:49:41.551Z,99.90
2018-04-02T03:52:10.064Z,99.90
2018-04-02T03:54:38.415Z,99.90
2018-04-02T03:57:07.554Z,99.90
2018-04-02T03:59:35.947Z,99.90
2018-04-02T04:02:04.291Z,99.90
2018-04-02T04:04:32.678Z,99.90
2018-04-02T04:07:01.017Z,99.90
2018-04-02T04:09:30.153Z,99.90
2018-04-02T04:11:58.495Z,99.90
2018-04-02T04:14:27.617Z,99.90
2018-04-02T04:16:55.961Z,99.90
2018-04-02T04:19:24.315Z,99.90
2018-04-02T04:21:52.661Z,99.90
2018-04-02T04:24:20.993Z,99.90
2018-04-02T04:26:49.352Z,99.90
2018-04-02T04:29:17.702Z,99.90
2018-04-02T04:31:46.059Z,99.90
2018-04-02T04:34:14.412Z,99.90
2018-04-02T04:36:42.772Z,99.90
2018-04-02T04:39:11.116Z,99.90
2018-04-02T04:41:39.487Z,99.90
2018-04-02T04:44:07.864Z,99.90
2018-04-02T04:46:36.210Z,99.90
2018-04-02T04:49:04.557Z,99.90
2018-04-02T04:51:32.939Z,99.90
2018-04-02T04:54:01.261Z,99.90
2018-04-02T04:56:29.596Z,99.90
2018-04-02T04:58:58.046Z,99.90
2018-04-02T05:01:26.512Z,99.90
2018-04-02T05:03:55.016Z,99.90
2018-04-02T05:06:23.345Z,99.90
2018-04-02T05:08:51.739Z,99.90
2018-04-02T05:11:20.865Z,99.90
2018-04-02T05:13:51.545Z,99.90
2018-04-02T05:16:19.989Z,99.90
2018-04-02T05:18:48.344Z,99.90
2018-04-02T05:21:16.694Z,99.90
2018-04-02T05:23:45.027Z,99.90
2018-04-02T05:26:13.420Z,99.90
2018-04-02T05:28:41.805Z,99.90
2018-04-02T05:31:10.159Z,99.90
2018-04-02T05:33:38.541Z,99.90
2018-04-02T05:36:06.997Z,99.90
2018-04-02T05:38:35.375Z,99.90
2018-04-02T05:41:03.722Z,99.90
2018-04-02T05:43:32.067Z,99.90
2018-04-02T05:46:00.574Z,99.90
2018-04-02T05:48:28.928Z,99.90
2018-04-02T05:50:57.402Z,99.90
2018-04-02T05:53:25.772Z,99.90
2018-04-02T05:55:54.120Z,99.90
2018-04-02T05:58:22.469Z,99.90
2018-04-02T06:00:50.878Z,99.90
2018-04-02T06:03:20.001Z,99.90
2018-04-02T06:05:48.389Z,99.90
2018-04-02T06:08:16.766Z,99.90
2018-04-02T06:10:45.249Z,99.90
2018-04-02T06:13:13.584Z,99.90
2018-04-02T06:15:42.704Z,99.90
2018-04-02T06:18:11.045Z,99.90
2018-04-02T06:20:39.395Z,99.90
2018-04-02T06:23:07.741Z,99.90
2018-04-02T06:25:36.109Z,99.90
2018-04-02T06:28:04.466Z,99.90
2018-04-02T06:30:32.870Z,99.90
2018-04-02T06:33:01.288Z,99.90
2018-04-02T06:35:29.649Z,99.90
2018-04-02T06:37:59.476Z,99.90
2018-04-02T06:40:27.812Z,99.90
2018-04-02T06:42:56.935Z,99.90
2018-04-02T06:45:25.276Z,99.90
2018-04-02T06:47:53.637Z,99.90
2018-04-02T06:50:22.165Z,99.90
2018-04-02T06:52:50.516Z,99.90
2018-04-02T06:55:19.610Z,99.90
2018-04-02T06:57:47.973Z,99.90
2018-04-02T07:00:16.319Z,99.90
2018-04-02T07:02:44.676Z,99.90
2018-04-02T07:05:13.133Z,99.90
2018-04-02T07:07:42.245Z,99.50
2018-04-02T07:10:11.358Z,99.60
2018-04-02T07:12:39.752Z,99.60
2018-04-02T07:15:08.232Z,99.70
2018-04-02T07:17:36.584Z,99.40
2018-04-02T07:20:04.948Z,98.60
2018-04-02T07:22:34.072Z,98.50
2018-04-02T07:25:02.460Z,98.50
2018-04-02T07:27:30.833Z,99.00
2018-04-02T07:29:59.172Z,99.00
2018-04-02T07:32:27.646Z,98.60
2018-04-02T07:34:56.028Z,98.40
2018-04-02T07:37:24.393Z,98.40
2018-04-02T07:39:52.725Z,98.60
2018-04-02T07:42:21.108Z,98.50
2018-04-02T07:44:49.462Z,98.40
2018-04-02T07:47:18.575Z,98.30
2018-04-02T07:49:46.925Z,98.10
2018-04-02T07:52:15.260Z,99.60
2018-04-02T07:54:43.844Z,99.90
2018-04-02T07:57:12.210Z,98.70
2018-04-02T07:59:40.544Z,98.00
2018-04-02T08:02:09.669Z,99.30
2018-04-02T08:04:38.323Z,99.10
2018-04-02T08:07:06.646Z,99.20
2018-04-02T08:09:35.000Z,98.20
2018-04-02T08:12:04.242Z,98.30
2018-04-02T08:14:32.587Z,98.30
2018-04-02T08:17:00.939Z,97.80
2018-04-02T08:19:30.077Z,96.40
2018-04-02T08:21:58.566Z,96.70
2018-04-02T08:24:26.921Z,96.50
2018-04-02T08:26:55.300Z,96.30
2018-04-02T08:29:23.643Z,96.40
2018-04-02T08:31:52.006Z,96.20
2018-04-02T08:34:20.364Z,96.40
2018-04-02T08:36:48.708Z,95.90
2018-04-02T08:39:17.851Z,96.00
2018-04-02T08:41:46.376Z,96.00
2018-04-02T08:44:15.518Z,95.80
2018-04-02T08:46:43.884Z,95.80
2018-04-02T08:49:12.993Z,94.70
2018-04-02T08:51:41.440Z,94.70
2018-04-02T08:54:10.708Z,94.30
2018-04-02T08:56:39.054Z,94.30
2018-04-02T08:59:07.440Z,94.50
2018-04-02T09:01:35.780Z,95.30
2018-04-02T09:04:04.129Z,94.00
2018-04-02T09:06:32.499Z,94.30
2018-04-02T09:09:00.852Z,93.90
2018-04-02T09:11:29.320Z,94.30
2018-04-02T09:13:57.668Z,93.80
2018-04-02T09:16:26.801Z,93.70
2018-04-02T09:18:55.149Z,93.60
2018-04-02T09:21:24.270Z,91.80
2018-04-02T09:23:52.649Z,91.80
2018-04-02T09:26:21.160Z,92.10
2018-04-02T09:28:49.520Z,90.50
2018-04-02T09:31:17.881Z,90.50
2018-04-02T09:33:46.362Z,90.60
2018-04-02T09:36:15.465Z,92.10
2018-04-02T09:38:43.820Z,92.10
2018-04-02T09:41:12.944Z,92.10
2018-04-02T09:43:41.330Z,92.00
2018-04-02T09:46:09.733Z,92.20
2018-04-02T09:48:38.140Z,92.10
2018-04-02T09:51:06.475Z,92.30
2018-04-02T09:53:34.863Z,92.70
2018-04-02T09:56:03.204Z,92.20
2018-04-02T09:58:31.563Z,92.10
2018-04-02T10:01:00.704Z,93.00
2018-04-02T10:03:34.689Z,93.00
2018-04-02T10:06:03.096Z,93.60
2018-04-02T10:08:31.452Z,94.30
2018-04-02T10:10:59.850Z,95.30
2018-04-02T10:13:28.209Z,95.30
2018-04-02T10:15:56.573Z,95.00
2018-04-02T10:18:25.691Z,96.30
2018-04-02T10:20:54.085Z,96.30
2018-04-02T10:23:22.475Z,95.40
2018-04-02T10:25:50.921Z,94.80
2018-04-02T10:28:19.316Z,94.70
2018-04-02T10:30:48.116Z,94.40
2018-04-02T10:33:17.524Z,93.00
2018-04-02T10:35:45.856Z,93.40
2018-04-02T10:38:14.975Z,92.40
2018-04-02T10:40:43.393Z,92.40
2018-04-02T10:43:11.771Z,93.50
2018-04-02T10:45:40.139Z,93.50
2018-04-02T10:48:08.648Z,93.10
2018-04-02T10:50:37.004Z,92.20
2018-04-02T10:53:05.515Z,91.30
2018-04-02T10:55:33.978Z,92.50
2018-04-02T10:58:02.353Z,91.40
2018-04-02T11:00:30.828Z,91.70
2018-04-02T11:02:59.177Z,90.30
2018-04-02T11:05:27.592Z,89.20
2018-04-02T11:07:55.941Z,82.80
2018-04-02T11:10:24.316Z,85.50
2018-04-02T11:12:52.678Z,84.80
2018-04-02T11:15:21.834Z,86.10
2018-04-02T11:17:50.212Z,86.10
2018-04-02T11:20:18.542Z,88.00
2018-04-02T11:22:46.921Z,90.00
2018-04-02T11:25:16.024Z,91.20
2018-04-02T11:27:44.384Z,91.20
2018-04-02T11:30:13.522Z,90.00
2018-04-02T11:32:42.831Z,90.00
2018-04-02T11:35:11.408Z,89.40
2018-04-02T11:37:39.755Z,88.20
2018-04-02T11:40:08.103Z,88.40
2018-04-02T11:42:36.460Z,87.10
2018-04-02T11:45:04.824Z,85.40
2018-04-02T11:47:33.768Z,86.30
2018-04-02T11:50:02.896Z,86.00
2018-04-02T11:52:31.278Z,85.90
2018-04-02T11:54:59.695Z,85.00
2018-04-02T11:57:28.041Z,83.60
2018-04-02T11:59:56.423Z,82.60
2018-04-02T12:02:24.793Z,85.50
2018-04-02T12:04:53.182Z,85.80
2018-04-02T12:07:21.540Z,86.60
2018-04-02T12:09:49.896Z,88.30
2018-04-02T12:12:19.104Z,84.80
2018-04-02T12:14:48.235Z,84.30
2018-04-02T12:17:16.657Z,84.30
2018-04-02T12:19:45.091Z,83.40
2018-04-02T12:22:13.476Z,83.80
2018-04-02T12:24:41.826Z,79.80
2018-04-02T12:27:10.203Z,79.50
2018-04-02T12:29:39.345Z,73.90
2018-04-02T12:32:07.777Z,73.90
2018-04-02T12:34:36.898Z,72.20
2018-04-02T12:37:05.301Z,72.50
2018-04-02T12:39:33.757Z,76.80
2018-04-02T12:42:02.248Z,75.50
2018-04-02T12:44:30.579Z,78.90
2018-04-02T12:46:59.736Z,78.60
2018-04-02T12:49:28.109Z,78.70
2018-04-02T12:51:56.480Z,74.20
2018-04-02T12:54:24.855Z,74.60
2018-04-02T12:56:53.199Z,76.20
2018-04-02T12:59:22.611Z,80.20
2018-04-02T13:01:51.029Z,80.20
2018-04-02T13:04:19.383Z,77.20
2018-04-02T13:06:47.763Z,78.70
2018-04-02T13:09:16.128Z,78.70
2018-04-02T13:11:45.063Z,79.70
2018-04-02T13:14:13.524Z,76.50
2018-04-02T13:16:41.868Z,76.80
2018-04-02T13:19:10.236Z,77.40
2018-04-02T13:21:38.748Z,77.50
2018-04-02T13:24:07.117Z,78.70
2018-04-02T13:26:35.467Z,78.90
2018-04-02T13:29:03.924Z,80.30
2018-04-02T13:31:32.325Z,81.00
2018-04-02T13:34:00.626Z,79.70
2018-04-02T13:36:29.801Z,82.90
2018-04-02T13:38:58.299Z,82.10
2018-04-02T13:41:26.644Z,82.70
2018-04-02T13:43:55.003Z,80.00
2018-04-02T13:46:23.436Z,81.40
2018-04-02T13:48:51.806Z,82.70
2018-04-02T13:51:20.226Z,80.00
2018-04-02T13:53:48.692Z,79.90
2018-04-02T13:56:17.092Z,81.80
2018-04-02T13:58:46.223Z,82.40
2018-04-02T14:01:14.823Z,82.60
2018-04-02T14:03:43.171Z,81.50
2018-04-02T14:06:11.524Z,80.50
2018-04-02T14:08:39.928Z,79.90
2018-04-02T14:11:08.286Z,78.80
2018-04-02T14:13:36.684Z,79.80
2018-04-02T14:16:05.062Z,80.50
2018-04-02T14:18:33.449Z,81.60
2018-04-02T14:21:01.821Z,82.30
2018-04-02T14:23:30.266Z,81.50
2018-04-02T14:25:59.329Z,80.60
2018-04-02T14:28:27.714Z,79.00
2018-04-02T14:30:56.052Z,80.10
2018-04-02T14:33:24.446Z,81.50
2018-04-02T14:35:52.785Z,81.30
2018-04-02T14:38:22.102Z,82.00
2018-04-02T14:40:50.452Z,81.80
2018-04-02T14:43:19.619Z,84.30
2018-04-02T14:45:47.961Z,84.00
2018-04-02T14:48:16.358Z,84.20
2018-04-02T14:50:44.719Z,84.60
2018-04-02T14:53:13.065Z,83.40
2018-04-02T14:55:41.412Z,83.80
2018-04-02T14:58:09.836Z,84.60
2018-04-02T15:00:38.986Z,86.00
2018-04-02T15:03:07.377Z,85.90
2018-04-02T15:05:35.878Z,85.80
2018-04-02T15:08:04.224Z,86.80
2018-04-02T15:10:32.689Z,87.00
2018-04-02T15:13:01.151Z,86.80
2018-04-02T15:15:29.595Z,86.30
2018-04-02T15:17:58.935Z,87.00
2018-04-02T15:20:27.307Z,87.40
2018-04-02T15:22:55.738Z,87.00
2018-04-02T15:25:24.266Z,87.30
2018-04-02T15:27:52.638Z,86.90
2018-04-02T15:30:21.790Z,87.20
2018-04-02T15:32:50.130Z,87.10
2018-04-02T15:35:18.540Z,87.70
2018-04-02T15:37:46.896Z,88.40
2018-04-02T15:40:15.301Z,88.80
2018-04-02T15:42:43.680Z,88.90
2018-04-02T15:45:12.025Z,89.50
2018-04-02T15:47:40.426Z,89.60
2018-04-02T15:50:08.796Z,89.30
2018-04-02T15:52:37.291Z,90.10
2018-04-02T15:55:05.638Z,90.00
2018-04-02T15:57:33.995Z,90.80
2018-04-02T16:00:02.386Z,90.40
2018-04-02T16:02:31.537Z,90.60
2018-04-02T16:04:59.902Z,90.70
2018-04-02T16:07:28.292Z,90.90
2018-04-02T16:09:56.645Z,90.10
2018-04-02T16:12:25.011Z,90.40
2018-04-02T16:14:54.149Z,89.70
2018-04-02T16:17:22.541Z,89.70
2018-04-02T16:19:51.043Z,90.20
2018-04-02T16:22:19.430Z,90.10
2018-04-02T16:24:48.759Z,89.40
2018-04-02T16:27:17.121Z,89.40
2018-04-02T16:29:46.268Z,90.10
2018-04-02T16:32:14.643Z,90.10
2018-04-02T16:34:43.022Z,90.20
2018-04-02T16:37:11.545Z,90.30
2018-04-02T16:39:39.832Z,90.40
2018-04-02T16:42:08.208Z,90.20
2018-04-02T16:44:36.591Z,90.00
2018-04-02T16:47:05.810Z,90.70
2018-04-02T16:49:34.212Z,90.30
2018-04-02T16:52:03.156Z,90.20
2018-04-02T16:54:32.307Z,89.30
2018-04-02T16:57:00.669Z,89.30
2018-04-02T16:59:29.128Z,88.90
2018-04-02T17:01:58.272Z,88.40
2018-04-02T17:04:26.653Z,88.40
2018-04-02T17:06:54.999Z,88.60
2018-04-02T17:09:23.363Z,89.20
2018-04-02T17:11:52.508Z,91.60
2018-04-02T17:14:20.910Z,91.60
2018-04-02T17:16:49.362Z,92.60
2018-04-02T17:19:17.717Z,93.20
2018-04-02T17:21:46.096Z,93.80
2018-04-02T17:24:14.545Z,94.10
2018-04-02T17:26:42.912Z,94.40
2018-04-02T17:29:11.276Z,94.90
2018-04-02T17:31:39.713Z,95.30
2018-04-02T17:34:08.105Z,95.50
2018-04-02T17:36:36.521Z,95.70
2018-04-02T17:39:04.901Z,95.90
2018-04-02T17:41:33.250Z,96.20
2018-04-02T17:44:01.634Z,96.60
2018-04-02T17:46:30.560Z,97.40
2018-04-02T17:48:58.925Z,97.70
2018-04-02T17:51:27.271Z,98.10
2018-04-02T17:53:55.669Z,98.40
2018-04-02T17:56:24.011Z,98.40
2018-04-02T17:58:53.275Z,98.80
2018-04-02T18:01:21.674Z,98.70
2018-04-02T18:03:50.149Z,98.80
2018-04-02T18:06:18.627Z,98.80
2018-04-02T18:08:46.967Z,99.10
2018-04-02T18:11:15.392Z,99.10
2018-04-02T18:13:43.752Z,99.20
2018-04-02T18:16:12.144Z,99.10
2018-04-02T18:18:40.527Z,99.20
2018-04-02T18:21:08.866Z,99.30
2018-04-02T18:23:37.252Z,99.40
2018-04-02T18:26:05.620Z,99.30
2018-04-02T18:28:34.083Z,99.40
2018-04-02T18:31:02.445Z,99.50
2018-04-02T18:33:31.794Z,99.90
2018-04-02T18:36:00.259Z,99.60
2018-04-02T18:38:28.750Z,99.90
2018-04-02T18:40:57.110Z,99.90
2018-04-02T18:43:25.562Z,99.90
2018-04-02T18:45:54.049Z,99.90
2018-04-02T18:48:22.401Z,99.90
2018-04-02T18:50:50.849Z,99.90
2018-04-02T18:53:19.161Z,99.90
2018-04-02T18:55:47.560Z,99.90
2018-04-02T18:58:15.975Z,99.90
2018-04-02T19:00:44.574Z,99.90
2018-04-02T19:03:12.974Z,99.90
2018-04-02T19:05:41.308Z,99.90
2018-04-02T19:08:09.739Z,99.90
2018-04-02T19:10:38.216Z,99.90
2018-04-02T19:13:06.593Z,99.90
2018-04-02T19:15:34.936Z,99.90
2018-04-02T19:18:03.741Z,99.90
2018-04-02T19:20:32.305Z,99.90
2018-04-02T19:23:00.721Z,99.90
2018-04-02T19:25:29.309Z,99.90
2018-04-02T19:27:57.654Z,99.90
2018-04-02T19:30:26.090Z,99.90
2018-04-02T19:32:54.621Z,99.90
2018-04-02T19:35:23.047Z,99.90
2018-04-02T19:37:51.394Z,99.90
2018-04-02T19:40:19.752Z,99.90
2018-04-02T19:42:48.577Z,99.90
2018-04-02T19:45:16.924Z,99.90
2018-04-02T19:47:45.285Z,99.90
2018-04-02T19:50:14.480Z,99.90
2018-04-02T19:52:43.649Z,99.90
2018-04-02T19:55:12.115Z,99.90
2018-04-02T19:57:40.456Z,99.90
2018-04-02T20:00:08.923Z,99.90
2018-04-02T20:02:37.286Z,99.90
2018-04-02T20:05:06.409Z,99.90
2018-04-02T20:07:34.874Z,99.90
2018-04-02T20:10:04.009Z,99.90
2018-04-02T20:12:32.414Z,99.90
2018-04-02T20:15:00.778Z,99.90
2018-04-02T20:17:29.938Z,99.90
2018-04-02T20:19:58.309Z,99.90
2018-04-02T20:22:27.489Z,99.90
2018-04-02T20:24:56.612Z,99.90
2018-04-02T20:27:24.964Z,99.90
2018-04-02T20:29:53.324Z,99.90
2018-04-02T20:32:21.717Z,99.90
2018-04-02T20:34:50.087Z,99.90
2018-04-02T20:37:18.482Z,99.90
2018-04-02T20:39:46.961Z,99.90
2018-04-02T20:42:15.397Z,99.90
2018-04-02T20:44:43.884Z,99.90
2018-04-02T20:47:12.228Z,99.90
2018-04-02T20:49:40.636Z,99.90
2018-04-02T20:52:08.994Z,99.90
2018-04-02T20:54:37.391Z,99.90
2018-04-02T20:57:05.741Z,99.90
2018-04-02T20:59:34.151Z,99.90
2018-04-02T21:02:02.646Z,99.90
2018-04-02T21:04:31.111Z,99.90
2018-04-02T21:06:59.472Z,99.90
2018-04-02T21:09:27.961Z,99.90
2018-04-02T21:12:00.300Z,99.90
2018-04-02T21:14:29.437Z,99.90
2018-04-02T21:16:57.789Z,99.90
2018-04-02T21:19:26.210Z,99.90
2018-04-02T21:21:54.659Z,99.90
2018-04-02T21:24:23.057Z,99.90
2018-04-02T21:26:51.481Z,99.90
2018-04-02T21:29:19.891Z,99.90
2018-04-02T21:31:49.148Z,99.90
2018-04-02T21:34:17.514Z,99.90
2018-04-02T21:36:45.873Z,99.90
2018-04-02T21:39:14.217Z,99.90
2018-04-02T21:41:43.371Z,99.90
2018-04-02T21:44:11.739Z,99.90
2018-04-02T21:46:40.364Z,99.90
2018-04-02T21:49:09.014Z,99.90
2018-04-02T21:51:37.679Z,99.90
2018-04-02T21:54:06.043Z,99.90
2018-04-02T21:56:34.541Z,99.90
2018-04-02T21:59:02.952Z,99.90
2018-04-02T22:01:31.382Z,99.90
2018-04-02T22:04:00.537Z,99.90
2018-04-02T22:09:29.969Z,99.90
2018-04-02T22:11:58.380Z,99.90
2018-04-02T22:14:27.520Z,99.90
2018-04-02T22:16:56.288Z,99.90
2018-04-02T22:19:24.786Z,99.40
2018-04-02T22:21:53.164Z,99.10
2018-04-02T22:24:21.570Z,97.90
2018-04-02T22:26:49.944Z,97.70
2018-04-02T22:29:18.358Z,98.00
2018-04-02T22:31:46.704Z,97.70
2018-04-02T22:34:15.032Z,97.80
2018-04-02T22:36:44.537Z,97.40
2018-04-02T22:39:13.997Z,97.40
2018-04-02T22:41:42.376Z,97.50
2018-04-02T22:44:11.531Z,97.40
2018-04-02T22:46:40.128Z,97.40
2018-04-02T22:49:08.627Z,97.70
2018-04-02T22:51:37.099Z,97.80
2018-04-02T22:54:05.467Z,97.70
2018-04-02T22:56:33.800Z,98.10
2018-04-02T22:59:02.270Z,98.30
2018-04-02T23:01:30.750Z,98.20
2018-04-02T23:03:59.101Z,98.70
2018-04-02T23:06:27.644Z,99.00
2018-04-02T23:08:56.032Z,99.30
2018-04-02T23:11:24.478Z,99.40
2018-04-02T23:13:52.956Z,99.60
2018-04-02T23:16:22.115Z,99.90
2018-04-02T23:18:50.524Z,99.90
2018-04-02T23:21:19.068Z,99.90
2018-04-02T23:23:47.675Z,99.90
2018-04-02T23:26:16.379Z,99.90
2018-04-02T23:28:44.788Z,99.90
2018-04-02T23:31:14.053Z,99.90
2018-04-02T23:33:42.635Z,99.90
2018-04-02T23:36:11.197Z,99.90
2018-04-02T23:38:39.750Z,99.90
2018-04-02T23:41:08.860Z,99.90
2018-04-02T23:43:37.293Z,99.90
2018-04-02T23:46:05.794Z,99.90
2018-04-02T23:48:34.994Z,99.90
2018-04-02T23:51:03.403Z,99.90
2018-04-02T23:53:32.163Z,99.90
2018-04-02T23:56:00.924Z,99.90
2018-04-02T23:58:29.267Z,99.90
